createdAt,value
2023-03-03T00:01:19.107Z,14.13
2023-03-03T00:03:46.554Z,14.50
2023-03-03T00:06:14.925Z,12.75
2023-03-03T00:08:42.718Z,12.23
2023-03-03T00:11:10.459Z,12.35
2023-03-03T00:13:55.491Z,14.65
2023-03-03T00:16:35.687Z,13.80
2023-03-03T00:19:03.317Z,13.02
2023-03-03T00:21:42.062Z,14.00
2023-03-03T00:24:23.452Z,14.27
2023-03-03T00:26:54.830Z,15.18
2023-03-03T00:29:28.688Z,15.00
2023-03-03T00:32:00.249Z,11.70
2023-03-03T00:34:30.768Z,11.95
2023-03-03T00:36:59.111Z,12.48
2023-03-03T00:39:39.234Z,11.75
2023-03-03T00:42:15.131Z,13.77
2023-03-03T00:44:59.129Z,11.98
2023-03-03T00:47:42.866Z,13.98
2023-03-03T00:50:10.100Z,13.15
2023-03-03T00:52:40.193Z,15.98
2023-03-03T00:55:08.771Z,14.70
2023-03-03T00:57:36.130Z,13.32
2023-03-03T01:00:05.904Z,14.88
2023-03-03T01:02:33.782Z,14.48
2023-03-03T01:05:01.385Z,15.95
2023-03-03T01:07:28.623Z,13.55
2023-03-03T01:09:56.065Z,13.23
2023-03-03T01:12:24.457Z,14.30
2023-03-03T01:14:54.993Z,13.63
2023-03-03T01:17:22.498Z,11.80
2023-03-03T01:19:50.168Z,12.52
2023-03-03T01:22:17.593Z,13.45
2023-03-03T01:24:44.902Z,17.10
2023-03-03T01:27:12.302Z,12.13
2023-03-03T01:29:39.629Z,12.55
2023-03-03T01:32:07.179Z,12.20
2023-03-03T01:34:34.485Z,12.30
2023-03-03T01:37:01.929Z,11.38
2023-03-03T01:39:29.187Z,13.73
2023-03-03T01:41:56.765Z,11.10
2023-03-03T01:44:24.304Z,12.05
2023-03-03T01:47:05.904Z,13.48
2023-03-03T01:49:40.338Z,12.75
2023-03-03T01:52:17.606Z,12.73
2023-03-03T01:54:50.689Z,13.00
2023-03-03T01:57:24.400Z,14.73
2023-03-03T01:59:52.880Z,13.82
2023-03-03T02:02:20.722Z,15.25
2023-03-03T02:04:49.603Z,11.90
2023-03-03T02:07:19.118Z,16.25
2023-03-03T02:10:05.358Z,13.30
2023-03-03T02:13:05.769Z,15.15
2023-03-03T02:15:38.380Z,12.40
2023-03-03T02:18:11.118Z,13.88
2023-03-03T02:20:48.508Z,12.73
2023-03-03T02:23:32.863Z,14.88
2023-03-03T02:26:11.255Z,15.88
2023-03-03T02:28:40.802Z,15.05
2023-03-03T02:31:13.684Z,14.15
2023-03-03T02:33:48.256Z,11.80
2023-03-03T02:36:27.675Z,15.40
2023-03-03T02:39:22.150Z,13.40
2023-03-03T02:42:20.441Z,13.90
2023-03-03T02:44:52.099Z,14.73
2023-03-03T02:47:19.386Z,14.48
2023-03-03T02:49:46.893Z,12.55
2023-03-03T02:52:15.078Z,14.15
2023-03-03T02:54:45.911Z,14.35
2023-03-03T02:57:13.256Z,16.42
2023-03-03T02:59:40.712Z,14.48
2023-03-03T03:02:14.086Z,15.35
2023-03-03T03:04:42.656Z,13.55
2023-03-03T03:07:12.042Z,13.98
2023-03-03T03:09:40.134Z,17.25
2023-03-03T03:12:07.786Z,13.55
2023-03-03T03:14:36.092Z,12.48
2023-03-03T03:17:05.075Z,14.13
2023-03-03T03:19:32.340Z,14.57
2023-03-03T03:22:02.272Z,15.73
2023-03-03T03:24:30.907Z,15.40
2023-03-03T03:27:03.216Z,15.85
2023-03-03T03:29:30.540Z,17.10
2023-03-03T03:31:58.196Z,12.57
2023-03-03T03:34:33.716Z,12.82
2023-03-03T03:37:01.074Z,14.40
2023-03-03T03:39:37.051Z,16.77
2023-03-03T03:42:04.432Z,14.50
2023-03-03T03:45:07.377Z,13.75
2023-03-03T03:47:34.858Z,14.68
2023-03-03T03:50:02.154Z,14.82
2023-03-03T03:52:29.835Z,14.27
2023-03-03T03:54:57.193Z,14.00
2023-03-03T03:57:26.638Z,14.82
2023-03-03T03:59:54.480Z,16.10
2023-03-03T04:02:22.249Z,13.32
2023-03-03T04:04:49.677Z,15.55
2023-03-03T04:07:17.661Z,15.27
2023-03-03T04:09:45.244Z,12.35
2023-03-03T04:12:13.013Z,13.07
2023-03-03T04:14:40.827Z,15.45
2023-03-03T04:17:08.509Z,15.23
2023-03-03T04:19:36.104Z,16.17
2023-03-03T04:22:07.169Z,12.55
2023-03-03T04:24:34.739Z,11.15
2023-03-03T04:27:02.906Z,12.48
2023-03-03T04:29:30.479Z,14.55
2023-03-03T04:31:58.072Z,14.25
2023-03-03T04:34:25.614Z,15.15
2023-03-03T04:36:54.128Z,15.40
2023-03-03T04:39:21.667Z,16.02
2023-03-03T04:41:49.265Z,15.88
2023-03-03T04:44:16.669Z,13.40
2023-03-03T04:46:44.308Z,14.02
2023-03-03T04:49:12.692Z,14.55
2023-03-03T04:51:41.869Z,15.80
2023-03-03T04:54:09.704Z,14.27
2023-03-03T04:56:36.982Z,14.35
2023-03-03T04:59:05.123Z,14.88
2023-03-03T05:01:32.995Z,16.02
2023-03-03T05:04:01.094Z,17.65
2023-03-03T05:06:28.471Z,14.20
2023-03-03T05:08:55.718Z,13.30
2023-03-03T05:11:24.178Z,21.10
2023-03-03T05:13:51.520Z,15.95
2023-03-03T05:16:19.080Z,17.73
2023-03-03T05:18:48.053Z,18.52
2023-03-03T05:21:15.298Z,20.15
2023-03-03T05:23:43.977Z,19.52
2023-03-03T05:26:11.225Z,14.95
2023-03-03T05:28:38.604Z,17.60
2023-03-03T05:31:06.028Z,14.00
2023-03-03T05:33:34.417Z,14.55
2023-03-03T05:36:01.789Z,15.02
2023-03-03T05:38:29.106Z,14.45
2023-03-03T05:40:56.408Z,16.10
2023-03-03T05:43:23.690Z,13.48
2023-03-03T05:45:58.605Z,14.65
2023-03-03T05:48:25.906Z,17.33
2023-03-03T05:50:53.226Z,12.63
2023-03-03T05:53:20.517Z,14.95
2023-03-03T05:55:47.813Z,16.60
2023-03-03T05:58:15.041Z,16.13
2023-03-03T06:00:43.867Z,15.55
2023-03-03T06:03:11.241Z,14.07
2023-03-03T06:05:38.712Z,15.80
2023-03-03T06:08:06.048Z,15.00
2023-03-03T06:10:33.398Z,15.25
2023-03-03T06:13:04.714Z,16.00
2023-03-03T06:15:32.026Z,17.20
2023-03-03T06:17:59.740Z,15.25
2023-03-03T06:20:27.034Z,15.23
2023-03-03T06:22:54.550Z,18.73
2023-03-03T06:25:21.850Z,17.13
2023-03-03T06:27:49.087Z,19.20
2023-03-03T06:30:16.854Z,20.27
2023-03-03T06:32:44.385Z,19.02
2023-03-03T06:35:12.786Z,15.93
2023-03-03T06:37:40.486Z,16.48
2023-03-03T06:40:08.372Z,15.00
2023-03-03T06:42:37.210Z,15.52
2023-03-03T06:45:05.089Z,15.73
2023-03-03T06:47:34.068Z,11.45
2023-03-03T06:50:01.515Z,14.50
2023-03-03T06:52:28.951Z,15.35
2023-03-03T06:54:59.214Z,17.83
2023-03-03T06:57:32.324Z,17.58
2023-03-03T07:00:12.046Z,18.95
2023-03-03T07:02:39.326Z,17.08
2023-03-03T07:05:14.998Z,16.30
2023-03-03T07:07:42.495Z,19.17
2023-03-03T07:10:28.869Z,18.33
2023-03-03T07:13:07.092Z,21.00
2023-03-03T07:15:37.345Z,18.27
2023-03-03T07:18:16.220Z,18.25
2023-03-03T07:20:44.131Z,20.48
2023-03-03T07:23:29.696Z,17.90
2023-03-03T07:25:56.937Z,20.50
2023-03-03T07:28:30.850Z,18.60
2023-03-03T07:30:58.526Z,17.02
2023-03-03T07:33:42.822Z,16.83
2023-03-03T07:36:35.736Z,16.55
2023-03-03T07:39:16.765Z,19.90
2023-03-03T07:41:44.052Z,17.60
2023-03-03T07:44:27.036Z,20.30
2023-03-03T07:46:54.310Z,15.93
2023-03-03T07:49:29.874Z,20.05
2023-03-03T07:51:58.309Z,22.77
2023-03-03T07:54:29.874Z,22.95
2023-03-03T07:59:55.100Z,16.85
2023-03-03T08:02:45.862Z,21.17
2023-03-03T08:05:42.434Z,22.17
2023-03-03T08:08:09.832Z,22.67
2023-03-03T08:10:49.795Z,24.27
2023-03-03T08:13:24.130Z,21.23
2023-03-03T08:15:56.101Z,22.92
2023-03-03T08:18:28.283Z,26.40
2023-03-03T08:21:01.175Z,21.08
2023-03-03T08:23:28.568Z,22.23
2023-03-03T08:25:55.967Z,24.52
2023-03-03T08:28:23.590Z,20.27
2023-03-03T08:30:54.401Z,19.70
2023-03-03T08:33:27.525Z,16.00
2023-03-03T08:35:54.993Z,21.48
2023-03-03T08:38:23.238Z,16.42
2023-03-03T08:40:51.094Z,20.35
2023-03-03T08:43:21.646Z,19.90
2023-03-03T08:45:50.646Z,18.73
2023-03-03T08:48:18.660Z,16.90
2023-03-03T08:50:46.981Z,18.98
2023-03-03T08:53:14.824Z,21.48
2023-03-03T08:55:43.016Z,14.68
2023-03-03T08:58:10.639Z,17.20
2023-03-03T09:00:38.587Z,14.15
2023-03-03T09:03:07.688Z,15.23
2023-03-03T09:05:37.393Z,15.13
2023-03-03T09:08:05.840Z,12.70
2023-03-03T09:10:34.718Z,11.02
2023-03-03T09:13:17.605Z,14.32
2023-03-03T09:15:45.724Z,13.70
2023-03-03T09:18:35.607Z,9.27
2023-03-03T09:21:03.146Z,10.63
2023-03-03T09:23:33.905Z,12.20
2023-03-03T09:26:28.384Z,12.40
2023-03-03T09:29:15.672Z,10.75
2023-03-03T09:31:49.405Z,18.27
2023-03-03T09:34:25.157Z,14.90
2023-03-03T09:36:55.311Z,16.50
2023-03-03T09:39:22.604Z,12.40
2023-03-03T09:42:19.391Z,13.05
2023-03-03T09:45:18.130Z,9.77
2023-03-03T09:48:07.001Z,11.43
2023-03-03T09:50:53.591Z,11.00
2023-03-03T09:53:47.979Z,12.50
2023-03-03T09:56:56.928Z,11.98
2023-03-03T09:59:49.978Z,12.77
2023-03-03T10:02:39.202Z,10.57
2023-03-03T10:05:39.177Z,12.63
2023-03-03T10:08:44.102Z,10.57
2023-03-03T10:11:35.975Z,11.20
2023-03-03T10:16:34.038Z,13.60
2023-03-03T10:19:27.282Z,13.25
2023-03-03T10:22:24.570Z,11.93
2023-03-03T10:25:22.802Z,17.10
2023-03-03T10:27:53.245Z,15.52
2023-03-03T10:30:58.025Z,18.17
2023-03-03T10:33:38.212Z,16.58
2023-03-03T10:36:15.458Z,15.00
2023-03-03T10:39:08.792Z,16.60
2023-03-03T10:41:45.229Z,15.15
2023-03-03T10:44:21.856Z,15.00
2023-03-03T10:47:15.816Z,11.30
2023-03-03T10:50:11.132Z,12.00
2023-03-03T10:53:02.518Z,15.93
2023-03-03T10:56:11.274Z,18.75
2023-03-03T10:59:08.012Z,12.40
2023-03-03T11:01:45.561Z,15.82
2023-03-03T11:04:32.604Z,13.98
2023-03-03T11:07:15.429Z,14.40
2023-03-03T11:10:21.433Z,13.82
2023-03-03T11:12:58.605Z,11.23
2023-03-03T11:15:56.548Z,16.50
2023-03-03T11:18:41.799Z,11.15
2023-03-03T11:21:09.249Z,19.63
2023-03-03T11:24:33.588Z,11.20
2023-03-03T11:27:28.609Z,9.55
2023-03-03T11:30:02.988Z,13.15
2023-03-03T11:32:54.131Z,16.00
2023-03-03T11:35:31.388Z,12.18
2023-03-03T11:38:26.113Z,12.65
2023-03-03T11:41:07.089Z,13.77
2023-03-03T11:44:18.915Z,12.63
2023-03-03T11:46:54.323Z,13.13
2023-03-03T11:49:22.812Z,15.65
2023-03-03T11:52:02.227Z,14.75
2023-03-03T11:54:36.114Z,13.52
2023-03-03T11:57:30.034Z,13.50
2023-03-03T12:00:09.637Z,13.93
2023-03-03T12:03:04.103Z,14.88
2023-03-03T12:05:34.552Z,14.00
2023-03-03T12:08:36.444Z,14.43
2023-03-03T12:11:15.792Z,10.65
2023-03-03T12:14:07.997Z,16.63
2023-03-03T12:17:01.502Z,9.52
2023-03-03T12:19:55.218Z,11.23
2023-03-03T12:22:35.826Z,13.43
2023-03-03T12:25:27.569Z,13.95
2023-03-03T12:28:12.261Z,10.75
2023-03-03T12:31:00.937Z,17.48
2023-03-03T12:33:57.073Z,16.05
2023-03-03T12:36:51.981Z,13.43
2023-03-03T12:39:45.371Z,15.43
2023-03-03T12:42:40.094Z,12.63
2023-03-03T12:45:24.785Z,14.85
2023-03-03T12:48:01.317Z,12.23
2023-03-03T12:50:37.668Z,31.80
2023-03-03T12:53:28.596Z,17.05
2023-03-03T12:56:13.802Z,16.65
2023-03-03T12:59:01.405Z,17.30
2023-03-03T13:01:40.829Z,11.55
2023-03-03T13:04:35.655Z,15.73
2023-03-03T13:07:21.735Z,13.60
2023-03-03T13:10:18.583Z,13.63
2023-03-03T13:12:48.143Z,14.05
2023-03-03T13:16:06.771Z,15.98
2023-03-03T13:19:09.094Z,13.50
2023-03-03T13:24:34.230Z,14.80
2023-03-03T13:27:11.094Z,15.48
2023-03-03T13:29:43.643Z,16.20
2023-03-03T13:32:43.542Z,18.05
2023-03-03T13:35:41.283Z,13.85
2023-03-03T13:38:14.399Z,16.35
2023-03-03T13:40:52.626Z,12.20
2023-03-03T13:43:24.670Z,16.65
2023-03-03T13:46:07.401Z,15.05
2023-03-03T13:48:43.986Z,10.85
2023-03-03T13:51:23.166Z,16.73
2023-03-03T13:54:12.083Z,13.77
2023-03-03T13:57:13.568Z,11.50
2023-03-03T13:59:47.229Z,14.18
2023-03-03T14:02:38.733Z,15.55
2023-03-03T14:05:08.836Z,15.43
2023-03-03T14:08:03.614Z,17.13
2023-03-03T14:11:09.685Z,15.90
2023-03-03T14:13:55.319Z,16.00
2023-03-03T14:16:51.267Z,16.83
2023-03-03T14:19:22.048Z,17.25
2023-03-03T14:21:52.650Z,14.88
2023-03-03T14:24:26.565Z,18.00
2023-03-03T14:26:56.973Z,14.15
2023-03-03T14:29:29.986Z,12.32
2023-03-03T14:32:00.206Z,15.45
2023-03-03T14:34:37.487Z,15.32
2023-03-03T14:37:23.333Z,13.30
2023-03-03T14:40:09.751Z,12.40
2023-03-03T14:43:08.219Z,15.20
2023-03-03T14:45:37.561Z,12.57
2023-03-03T14:48:32.778Z,14.70
2023-03-03T14:51:24.809Z,14.60
2023-03-03T14:56:37.687Z,14.77
2023-03-03T14:59:17.317Z,13.38
2023-03-03T15:01:45.421Z,15.23
2023-03-03T15:04:34.371Z,13.70
2023-03-03T15:07:28.804Z,12.05
2023-03-03T15:09:57.606Z,14.48
2023-03-03T15:12:43.361Z,12.23
2023-03-03T15:15:11.650Z,12.35
2023-03-03T15:18:02.830Z,15.52
2023-03-03T15:20:33.035Z,14.33
2023-03-03T15:23:18.723Z,14.95
2023-03-03T15:26:23.376Z,14.13
2023-03-03T15:28:53.966Z,18.98
2023-03-03T15:31:42.430Z,12.90
2023-03-03T15:34:23.250Z,12.90
2023-03-03T15:37:01.614Z,14.77
2023-03-03T15:39:38.154Z,15.75
2023-03-03T15:42:12.262Z,14.02
2023-03-03T15:44:53.357Z,14.27
2023-03-03T15:47:42.335Z,20.27
2023-03-03T15:50:19.221Z,17.88
2023-03-03T15:53:10.725Z,13.57
2023-03-03T15:55:56.734Z,12.90
2023-03-03T15:59:03.429Z,12.18
2023-03-03T16:01:41.432Z,12.55
2023-03-03T16:04:16.058Z,11.73
2023-03-03T16:07:08.041Z,13.43
2023-03-03T16:09:47.715Z,14.48
2023-03-03T16:12:34.529Z,14.13
2023-03-03T16:15:16.829Z,17.30
2023-03-03T16:17:50.058Z,21.27
2023-03-03T16:20:20.959Z,16.92
2023-03-03T16:23:13.693Z,13.45
2023-03-03T16:26:14.429Z,11.80
2023-03-03T16:29:07.073Z,13.75
2023-03-03T16:31:40.383Z,14.43
2023-03-03T16:34:14.487Z,11.25
2023-03-03T16:37:10.215Z,13.15
2023-03-03T16:39:49.730Z,12.02
2023-03-03T16:42:29.322Z,15.23
2023-03-03T16:45:15.676Z,18.52
2023-03-03T16:47:58.701Z,20.50
2023-03-03T16:50:46.523Z,19.35
2023-03-03T16:53:31.797Z,17.77
2023-03-03T16:56:16.381Z,16.38
2023-03-03T16:59:04.842Z,16.48
2023-03-03T17:01:42.195Z,16.17
2023-03-03T17:04:34.252Z,16.60
2023-03-03T17:07:33.249Z,17.80
2023-03-03T17:10:30.625Z,14.80
2023-03-03T17:13:23.950Z,13.10
2023-03-03T17:16:26.016Z,13.25
2023-03-03T17:19:12.240Z,12.93
2023-03-03T17:22:12.991Z,16.35
2023-03-03T17:25:01.240Z,15.00
2023-03-03T17:28:07.114Z,10.80
2023-03-03T17:30:34.700Z,13.25
2023-03-03T17:33:14.375Z,14.60
2023-03-03T17:35:51.320Z,12.65
2023-03-03T17:38:42.142Z,14.60
2023-03-03T17:41:22.377Z,19.93
2023-03-03T17:44:12.752Z,13.95
2023-03-03T17:46:54.254Z,11.90
2023-03-03T17:49:41.634Z,16.35
2023-03-03T17:52:48.895Z,17.95
2023-03-03T17:55:31.679Z,13.98
2023-03-03T17:58:41.919Z,13.57
2023-03-03T18:01:27.615Z,18.67
2023-03-03T18:04:18.279Z,16.02
2023-03-03T18:07:19.212Z,14.90
2023-03-03T18:10:14.947Z,18.17
2023-03-03T18:13:07.826Z,14.15
2023-03-03T18:15:56.004Z,15.50
2023-03-03T18:18:52.939Z,24.42
2023-03-03T18:21:35.512Z,22.77
2023-03-03T18:24:30.398Z,22.40
2023-03-03T18:27:25.985Z,15.73
2023-03-03T18:30:10.149Z,16.60
2023-03-03T18:32:58.098Z,15.23
2023-03-03T18:35:35.249Z,16.08
2023-03-03T18:38:26.396Z,13.40
2023-03-03T18:41:18.882Z,12.45
2023-03-03T18:43:48.797Z,15.50
2023-03-03T18:46:23.263Z,15.25
2023-03-03T18:48:56.615Z,16.98
2023-03-03T18:51:40.204Z,18.73
2023-03-03T18:54:28.319Z,13.25
2023-03-03T18:57:02.975Z,16.92
2023-03-03T18:59:37.460Z,14.95
2023-03-03T19:02:30.535Z,25.08
2023-03-03T19:05:18.991Z,20.60
2023-03-03T19:08:24.014Z,24.98
2023-03-03T19:11:20.268Z,27.35
2023-03-03T19:13:49.852Z,25.67
2023-03-03T19:16:29.054Z,25.63
2023-03-03T19:18:57.245Z,26.58
2023-03-03T19:21:37.782Z,28.38
2023-03-03T19:24:17.826Z,30.15
2023-03-03T19:27:07.979Z,28.13
2023-03-03T19:29:59.174Z,26.02
2023-03-03T19:32:36.373Z,21.75
2023-03-03T19:35:23.552Z,22.02
2023-03-03T19:38:10.354Z,22.70
2023-03-03T19:40:50.312Z,24.58
2023-03-03T19:43:27.608Z,21.90
2023-03-03T19:46:32.633Z,18.40
2023-03-03T19:49:29.694Z,19.17
2023-03-03T19:51:58.138Z,21.75
2023-03-03T19:54:59.563Z,20.73
2023-03-03T19:57:57.163Z,18.27
2023-03-03T20:01:09.559Z,15.68
2023-03-03T20:04:14.172Z,17.77
2023-03-03T20:07:21.645Z,17.90
2023-03-03T20:10:25.094Z,16.65
2023-03-03T20:13:00.635Z,16.88
2023-03-03T20:16:11.845Z,17.02
2023-03-03T20:18:49.501Z,19.20
2023-03-03T20:21:40.857Z,16.02
2023-03-03T20:24:32.768Z,13.90
2023-03-03T20:27:46.648Z,16.55
2023-03-03T20:30:15.290Z,12.82
2023-03-03T20:32:52.819Z,19.25
2023-03-03T20:35:28.809Z,18.90
2023-03-03T20:38:18.807Z,13.85
2023-03-03T20:41:16.663Z,13.57
2023-03-03T20:44:06.915Z,15.18
2023-03-03T20:46:57.850Z,16.75
2023-03-03T20:49:49.404Z,15.02
2023-03-03T20:52:38.704Z,16.50
2023-03-03T20:55:28.464Z,14.18
2023-03-03T20:58:18.409Z,14.00
2023-03-03T21:01:11.722Z,17.50
2023-03-03T21:03:43.776Z,19.50
2023-03-03T21:06:20.456Z,17.60
2023-03-03T21:08:57.773Z,21.48
2023-03-03T21:11:43.414Z,18.45
2023-03-03T21:14:21.153Z,18.10
2023-03-03T21:16:51.016Z,15.30
2023-03-03T21:19:30.936Z,18.85
2023-03-03T21:22:02.168Z,15.30
2023-03-03T21:27:31.774Z,17.95
2023-03-03T21:30:08.478Z,17.67
2023-03-03T21:32:42.402Z,16.88
2023-03-03T21:35:19.263Z,13.32
2023-03-03T21:37:53.798Z,20.35
2023-03-03T21:40:29.629Z,17.58
2023-03-03T21:43:00.662Z,20.42
2023-03-03T21:45:30.238Z,20.23
2023-03-03T21:48:00.693Z,14.88
2023-03-03T21:50:32.853Z,19.83
2023-03-03T21:53:00.833Z,18.85
2023-03-03T21:55:28.191Z,17.73
2023-03-03T21:57:55.747Z,17.25
2023-03-03T22:00:23.333Z,22.42
2023-03-03T22:02:50.713Z,17.83
2023-03-03T22:05:18.054Z,16.50
2023-03-03T22:07:45.641Z,20.42
2023-03-03T22:10:13.173Z,14.85
2023-03-03T22:12:40.556Z,16.13
2023-03-03T22:15:08.626Z,15.40
2023-03-03T22:17:35.975Z,14.23
2023-03-03T22:20:03.735Z,16.40
2023-03-03T22:22:31.221Z,19.08
2023-03-03T22:24:58.605Z,13.77
2023-03-03T22:27:26.004Z,13.85
2023-03-03T22:29:53.537Z,18.27
2023-03-03T22:32:20.900Z,17.67
2023-03-03T22:34:48.504Z,17.42
2023-03-03T22:37:15.811Z,17.80
2023-03-03T22:39:43.130Z,15.50
2023-03-03T22:42:11.352Z,20.00
2023-03-03T22:44:38.909Z,13.57
2023-03-03T22:47:06.355Z,14.05
2023-03-03T22:49:33.820Z,13.75
2023-03-03T22:52:02.836Z,20.98
2023-03-03T22:54:30.221Z,16.27
2023-03-03T22:56:57.681Z,13.32
2023-03-03T22:59:25.127Z,14.52
2023-03-03T23:01:52.447Z,18.20
2023-03-03T23:04:19.881Z,15.00
2023-03-03T23:06:47.364Z,12.77
2023-03-03T23:09:14.942Z,15.32
2023-03-03T23:11:42.304Z,13.63
2023-03-03T23:14:09.601Z,16.17
2023-03-03T23:16:36.837Z,17.25
2023-03-03T23:19:04.117Z,12.65
2023-03-03T23:21:31.746Z,16.00
2023-03-03T23:23:59.000Z,17.50
2023-03-03T23:26:26.427Z,17.10
2023-03-03T23:28:53.676Z,15.00
2023-03-03T23:31:21.197Z,13.45
2023-03-03T23:33:48.599Z,13.68
2023-03-03T23:36:15.841Z,13.80
2023-03-03T23:38:43.319Z,13.77
2023-03-03T23:41:10.576Z,14.68
2023-03-03T23:43:37.955Z,13.35
2023-03-03T23:46:05.391Z,14.82
2023-03-03T23:48:32.982Z,14.95
2023-03-03T23:51:01.831Z,14.68
2023-03-03T23:53:29.230Z,17.17
2023-03-03T23:55:56.473Z,11.48
2023-03-03T23:58:25.428Z,13.68
